sensor_id;sensor_type;location;lat;lon;timestamp;temperature;humidity
16781;DHT22;8507;50.056;8.248;2023-05-31T00:01:08;16.70;99.90
16781;DHT22;8507;50.056;8.248;2023-05-31T00:03:33;16.70;99.90
16781;DHT22;8507;50.056;8.248;2023-05-31T00:06:00;16.70;99.90
16781;DHT22;8507;50.056;8.248;2023-05-31T00:08:27;16.70;99.90
16781;DHT22;8507;50.056;8.248;2023-05-31T00:10:52;16.60;99.90
16781;DHT22;8507;50.056;8.248;2023-05-31T00:13:18;16.60;99.90
16781;DHT22;8507;50.056;8.248;2023-05-31T00:15:43;16.60;99.90
16781;DHT22;8507;50.056;8.248;2023-05-31T00:18:09;16.60;99.90
16781;DHT22;8507;50.056;8.248;2023-05-31T00:20:34;16.60;99.90
16781;DHT22;8507;50.056;8.248;2023-05-31T00:23:00;16.60;99.90
16781;DHT22;8507;50.056;8.248;2023-05-31T00:25:25;16.60;99.90
16781;DHT22;8507;50.056;8.248;2023-05-31T00:27:51;16.50;99.90
16781;DHT22;8507;50.056;8.248;2023-05-31T00:30:17;16.60;99.90
16781;DHT22;8507;50.056;8.248;2023-05-31T00:32:42;16.50;99.90
16781;DHT22;8507;50.056;8.248;2023-05-31T00:35:08;16.50;99.90
16781;DHT22;8507;50.056;8.248;2023-05-31T00:37:33;16.50;99.90
16781;DHT22;8507;50.056;8.248;2023-05-31T00:40:03;16.40;99.90
16781;DHT22;8507;50.056;8.248;2023-05-31T00:42:31;16.40;99.90
16781;DHT22;8507;50.056;8.248;2023-05-31T00:44:57;16.40;99.90
16781;DHT22;8507;50.056;8.248;2023-05-31T00:47:22;16.40;99.90
16781;DHT22;8507;50.056;8.248;2023-05-31T00:49:48;16.30;99.90
16781;DHT22;8507;50.056;8.248;2023-05-31T00:52:14;16.30;99.90
16781;DHT22;8507;50.056;8.248;2023-05-31T00:54:39;16.40;99.90
16781;DHT22;8507;50.056;8.248;2023-05-31T00:57:05;16.30;99.90
16781;DHT22;8507;50.056;8.248;2023-05-31T00:59:31;16.30;99.90
16781;DHT22;8507;50.056;8.248;2023-05-31T01:01:57;16.30;99.90
16781;DHT22;8507;50.056;8.248;2023-05-31T01:04:23;16.30;99.90
16781;DHT22;8507;50.056;8.248;2023-05-31T01:06:49;16.30;99.90
16781;DHT22;8507;50.056;8.248;2023-05-31T01:09:16;16.30;99.90
16781;DHT22;8507;50.056;8.248;2023-05-31T01:14:46;16.40;99.90
16781;DHT22;8507;50.056;8.248;2023-05-31T01:20:04;16.30;99.90
16781;DHT22;8507;50.056;8.248;2023-05-31T01:25:22;16.30;99.90
16781;DHT22;8507;50.056;8.248;2023-05-31T01:27:52;16.30;99.90
16781;DHT22;8507;50.056;8.248;2023-05-31T01:30:21;16.30;99.90
16781;DHT22;8507;50.056;8.248;2023-05-31T01:32:47;16.30;99.90
16781;DHT22;8507;50.056;8.248;2023-05-31T01:35:14;16.30;99.90
16781;DHT22;8507;50.056;8.248;2023-05-31T01:37:40;16.30;99.90
16781;DHT22;8507;50.056;8.248;2023-05-31T01:40:06;16.30;99.90
16781;DHT22;8507;50.056;8.248;2023-05-31T01:42:32;16.30;99.90
16781;DHT22;8507;50.056;8.248;2023-05-31T01:44:58;16.30;99.90
16781;DHT22;8507;50.056;8.248;2023-05-31T01:47:24;16.20;99.90
16781;DHT22;8507;50.056;8.248;2023-05-31T01:49:50;16.20;99.90
16781;DHT22;8507;50.056;8.248;2023-05-31T01:52:17;16.20;99.90
16781;DHT22;8507;50.056;8.248;2023-05-31T01:54:44;16.10;99.90
16781;DHT22;8507;50.056;8.248;2023-05-31T01:57:10;16.00;99.90
16781;DHT22;8507;50.056;8.248;2023-05-31T01:59:38;16.00;99.90
16781;DHT22;8507;50.056;8.248;2023-05-31T02:02:05;15.90;99.90
16781;DHT22;8507;50.056;8.248;2023-05-31T02:04:31;16.00;99.90
16781;DHT22;8507;50.056;8.248;2023-05-31T02:06:56;16.00;99.90
16781;DHT22;8507;50.056;8.248;2023-05-31T02:09:23;15.90;99.90
16781;DHT22;8507;50.056;8.248;2023-05-31T02:11:49;15.90;99.90
16781;DHT22;8507;50.056;8.248;2023-05-31T02:14:15;15.90;99.90
16781;DHT22;8507;50.056;8.248;2023-05-31T02:16:40;15.90;99.90
16781;DHT22;8507;50.056;8.248;2023-05-31T02:19:06;15.90;99.90
16781;DHT22;8507;50.056;8.248;2023-05-31T02:21:35;15.90;99.90
16781;DHT22;8507;50.056;8.248;2023-05-31T02:24:01;15.90;99.90
16781;DHT22;8507;50.056;8.248;2023-05-31T02:26:26;15.80;99.90
16781;DHT22;8507;50.056;8.248;2023-05-31T02:28:52;15.80;99.90
16781;DHT22;8507;50.056;8.248;2023-05-31T02:31:18;15.80;99.90
16781;DHT22;8507;50.056;8.248;2023-05-31T02:33:43;15.70;99.90
16781;DHT22;8507;50.056;8.248;2023-05-31T02:36:10;15.80;99.90
16781;DHT22;8507;50.056;8.248;2023-05-31T02:38:36;15.80;99.90
16781;DHT22;8507;50.056;8.248;2023-05-31T02:41:02;15.80;99.90
16781;DHT22;8507;50.056;8.248;2023-05-31T02:43:28;15.80;99.90
16781;DHT22;8507;50.056;8.248;2023-05-31T02:45:53;15.80;99.90
16781;DHT22;8507;50.056;8.248;2023-05-31T02:48:19;15.70;99.90
16781;DHT22;8507;50.056;8.248;2023-05-31T02:50:44;15.70;99.90
16781;DHT22;8507;50.056;8.248;2023-05-31T02:53:10;15.80;99.90
16781;DHT22;8507;50.056;8.248;2023-05-31T02:55:35;15.80;99.90
16781;DHT22;8507;50.056;8.248;2023-05-31T02:58:03;15.80;99.90
16781;DHT22;8507;50.056;8.248;2023-05-31T03:00:28;15.80;99.90
16781;DHT22;8507;50.056;8.248;2023-05-31T03:02:54;15.80;99.90
16781;DHT22;8507;50.056;8.248;2023-05-31T03:05:20;15.70;99.90
16781;DHT22;8507;50.056;8.248;2023-05-31T03:07:46;15.80;99.90
16781;DHT22;8507;50.056;8.248;2023-05-31T03:10:12;15.70;99.90
16781;DHT22;8507;50.056;8.248;2023-05-31T03:12:37;15.80;99.90
16781;DHT22;8507;50.056;8.248;2023-05-31T03:15:03;15.80;99.90
16781;DHT22;8507;50.056;8.248;2023-05-31T03:17:30;15.70;99.90
16781;DHT22;8507;50.056;8.248;2023-05-31T03:19:56;15.70;99.90
16781;DHT22;8507;50.056;8.248;2023-05-31T03:22:21;15.70;99.90
16781;DHT22;8507;50.056;8.248;2023-05-31T03:24:48;15.70;99.90
16781;DHT22;8507;50.056;8.248;2023-05-31T03:27:14;15.70;99.90
16781;DHT22;8507;50.056;8.248;2023-05-31T03:29:41;15.70;99.90
16781;DHT22;8507;50.056;8.248;2023-05-31T03:32:06;15.70;99.90
16781;DHT22;8507;50.056;8.248;2023-05-31T03:34:32;15.70;99.90
16781;DHT22;8507;50.056;8.248;2023-05-31T03:36:58;15.70;99.90
16781;DHT22;8507;50.056;8.248;2023-05-31T03:39:24;15.80;99.90
16781;DHT22;8507;50.056;8.248;2023-05-31T03:41:49;15.90;99.90
16781;DHT22;8507;50.056;8.248;2023-05-31T03:44:15;16.30;99.90
16781;DHT22;8507;50.056;8.248;2023-05-31T03:46:40;16.60;99.90
16781;DHT22;8507;50.056;8.248;2023-05-31T03:49:06;16.70;99.90
16781;DHT22;8507;50.056;8.248;2023-05-31T03:51:32;17.00;99.90
16781;DHT22;8507;50.056;8.248;2023-05-31T03:53:58;17.20;99.90
16781;DHT22;8507;50.056;8.248;2023-05-31T03:56:23;17.60;99.90
16781;DHT22;8507;50.056;8.248;2023-05-31T03:58:49;17.70;99.90
16781;DHT22;8507;50.056;8.248;2023-05-31T04:01:15;17.90;99.90
16781;DHT22;8507;50.056;8.248;2023-05-31T04:03:41;18.00;99.90
16781;DHT22;8507;50.056;8.248;2023-05-31T04:06:06;17.90;99.90
16781;DHT22;8507;50.056;8.248;2023-05-31T04:08:32;18.20;99.90
16781;DHT22;8507;50.056;8.248;2023-05-31T04:10:57;18.40;99.90
16781;DHT22;8507;50.056;8.248;2023-05-31T04:13:23;18.60;99.90
16781;DHT22;8507;50.056;8.248;2023-05-31T04:15:48;19.00;99.90
16781;DHT22;8507;50.056;8.248;2023-05-31T04:18:14;18.80;99.90
16781;DHT22;8507;50.056;8.248;2023-05-31T04:20:39;18.50;99.90
16781;DHT22;8507;50.056;8.248;2023-05-31T04:23:05;18.20;99.90
16781;DHT22;8507;50.056;8.248;2023-05-31T04:25:31;17.90;99.90
16781;DHT22;8507;50.056;8.248;2023-05-31T04:27:56;17.60;99.90
16781;DHT22;8507;50.056;8.248;2023-05-31T04:30:22;17.60;99.90
16781;DHT22;8507;50.056;8.248;2023-05-31T04:32:49;17.50;99.90
16781;DHT22;8507;50.056;8.248;2023-05-31T04:35:17;17.40;99.90
16781;DHT22;8507;50.056;8.248;2023-05-31T04:37:42;17.30;99.90
16781;DHT22;8507;50.056;8.248;2023-05-31T04:40:08;17.30;99.90
16781;DHT22;8507;50.056;8.248;2023-05-31T04:42:36;17.30;99.90
16781;DHT22;8507;50.056;8.248;2023-05-31T04:45:02;17.30;99.90
16781;DHT22;8507;50.056;8.248;2023-05-31T04:47:36;17.30;99.90
16781;DHT22;8507;50.056;8.248;2023-05-31T04:50:01;17.20;99.90
16781;DHT22;8507;50.056;8.248;2023-05-31T04:52:28;17.20;99.90
16781;DHT22;8507;50.056;8.248;2023-05-31T04:55:01;17.10;99.90
16781;DHT22;8507;50.056;8.248;2023-05-31T04:57:27;17.10;99.90
16781;DHT22;8507;50.056;8.248;2023-05-31T04:59:54;17.00;99.90
16781;DHT22;8507;50.056;8.248;2023-05-31T05:02:22;17.00;99.90
16781;DHT22;8507;50.056;8.248;2023-05-31T05:04:47;17.10;99.90
16781;DHT22;8507;50.056;8.248;2023-05-31T05:07:16;17.10;99.90
16781;DHT22;8507;50.056;8.248;2023-05-31T05:09:42;17.20;99.90
16781;DHT22;8507;50.056;8.248;2023-05-31T05:12:09;17.20;99.90
16781;DHT22;8507;50.056;8.248;2023-05-31T05:14:35;17.20;99.90
16781;DHT22;8507;50.056;8.248;2023-05-31T05:17:00;17.20;99.90
16781;DHT22;8507;50.056;8.248;2023-05-31T05:19:26;17.30;99.90
16781;DHT22;8507;50.056;8.248;2023-05-31T05:21:51;17.30;99.90
16781;DHT22;8507;50.056;8.248;2023-05-31T05:24:17;17.40;99.90
16781;DHT22;8507;50.056;8.248;2023-05-31T05:26:44;17.50;99.90
16781;DHT22;8507;50.056;8.248;2023-05-31T05:29:09;17.50;99.90
16781;DHT22;8507;50.056;8.248;2023-05-31T05:31:35;17.60;99.90
16781;DHT22;8507;50.056;8.248;2023-05-31T05:34:00;17.70;99.90
16781;DHT22;8507;50.056;8.248;2023-05-31T05:36:26;17.70;99.90
16781;DHT22;8507;50.056;8.248;2023-05-31T05:38:53;17.70;99.90
16781;DHT22;8507;50.056;8.248;2023-05-31T05:41:19;17.80;99.90
16781;DHT22;8507;50.056;8.248;2023-05-31T05:43:45;17.70;99.90
16781;DHT22;8507;50.056;8.248;2023-05-31T05:46:10;17.80;99.90
16781;DHT22;8507;50.056;8.248;2023-05-31T05:48:36;17.90;99.90
16781;DHT22;8507;50.056;8.248;2023-05-31T05:51:02;17.90;99.90
16781;DHT22;8507;50.056;8.248;2023-05-31T05:53:28;18.00;99.90
16781;DHT22;8507;50.056;8.248;2023-05-31T05:55:54;18.20;99.90
16781;DHT22;8507;50.056;8.248;2023-05-31T05:58:20;18.30;99.90
16781;DHT22;8507;50.056;8.248;2023-05-31T06:00:46;18.40;99.90
16781;DHT22;8507;50.056;8.248;2023-05-31T06:03:12;18.60;99.90
16781;DHT22;8507;50.056;8.248;2023-05-31T06:05:38;18.60;99.90
16781;DHT22;8507;50.056;8.248;2023-05-31T06:08:04;18.60;99.90
16781;DHT22;8507;50.056;8.248;2023-05-31T06:10:30;18.60;99.90
16781;DHT22;8507;50.056;8.248;2023-05-31T06:12:55;18.70;99.90
16781;DHT22;8507;50.056;8.248;2023-05-31T06:15:21;18.70;99.90
16781;DHT22;8507;50.056;8.248;2023-05-31T06:17:46;18.70;99.90
16781;DHT22;8507;50.056;8.248;2023-05-31T06:20:14;18.90;99.90
16781;DHT22;8507;50.056;8.248;2023-05-31T06:22:40;18.90;99.90
16781;DHT22;8507;50.056;8.248;2023-05-31T06:25:06;18.80;99.90
16781;DHT22;8507;50.056;8.248;2023-05-31T06:27:33;18.80;99.90
16781;DHT22;8507;50.056;8.248;2023-05-31T06:29:59;18.80;99.90
16781;DHT22;8507;50.056;8.248;2023-05-31T06:32:28;18.70;99.90
16781;DHT22;8507;50.056;8.248;2023-05-31T06:34:54;18.70;99.90
16781;DHT22;8507;50.056;8.248;2023-05-31T06:37:20;18.90;99.90
16781;DHT22;8507;50.056;8.248;2023-05-31T06:39:47;19.00;99.90
16781;DHT22;8507;50.056;8.248;2023-05-31T06:42:13;19.10;99.90
16781;DHT22;8507;50.056;8.248;2023-05-31T06:44:40;19.00;99.90
16781;DHT22;8507;50.056;8.248;2023-05-31T06:47:06;19.10;99.90
16781;DHT22;8507;50.056;8.248;2023-05-31T06:49:31;19.20;99.90
16781;DHT22;8507;50.056;8.248;2023-05-31T06:51:57;19.40;99.90
16781;DHT22;8507;50.056;8.248;2023-05-31T06:54:23;19.50;99.90
16781;DHT22;8507;50.056;8.248;2023-05-31T06:56:48;19.60;99.90
16781;DHT22;8507;50.056;8.248;2023-05-31T06:59:14;19.40;99.90
16781;DHT22;8507;50.056;8.248;2023-05-31T07:01:39;19.50;99.90
16781;DHT22;8507;50.056;8.248;2023-05-31T07:04:05;19.40;99.90
16781;DHT22;8507;50.056;8.248;2023-05-31T07:06:31;19.60;99.90
16781;DHT22;8507;50.056;8.248;2023-05-31T07:08:57;19.50;99.90
16781;DHT22;8507;50.056;8.248;2023-05-31T07:11:23;19.50;99.90
16781;DHT22;8507;50.056;8.248;2023-05-31T07:13:49;19.60;99.90
16781;DHT22;8507;50.056;8.248;2023-05-31T07:16:14;19.70;99.90
16781;DHT22;8507;50.056;8.248;2023-05-31T07:18:40;20.10;99.90
16781;DHT22;8507;50.056;8.248;2023-05-31T07:21:05;20.20;99.90
16781;DHT22;8507;50.056;8.248;2023-05-31T07:23:32;20.30;99.90
16781;DHT22;8507;50.056;8.248;2023-05-31T07:25:57;20.20;99.90
16781;DHT22;8507;50.056;8.248;2023-05-31T07:28:25;20.30;99.90
16781;DHT22;8507;50.056;8.248;2023-05-31T07:30:50;20.60;99.90
16781;DHT22;8507;50.056;8.248;2023-05-31T07:33:16;20.40;99.90
16781;DHT22;8507;50.056;8.248;2023-05-31T07:35:42;20.70;99.90
16781;DHT22;8507;50.056;8.248;2023-05-31T07:38:08;20.40;99.90
16781;DHT22;8507;50.056;8.248;2023-05-31T07:40:34;20.30;99.90
16781;DHT22;8507;50.056;8.248;2023-05-31T07:42:59;20.40;99.90
16781;DHT22;8507;50.056;8.248;2023-05-31T07:45:25;20.40;99.90
16781;DHT22;8507;50.056;8.248;2023-05-31T07:47:51;20.20;99.90
16781;DHT22;8507;50.056;8.248;2023-05-31T07:50:18;20.30;99.90
16781;DHT22;8507;50.056;8.248;2023-05-31T07:52:43;20.50;99.90
16781;DHT22;8507;50.056;8.248;2023-05-31T07:55:11;20.70;99.90
16781;DHT22;8507;50.056;8.248;2023-05-31T07:57:38;20.50;99.90
16781;DHT22;8507;50.056;8.248;2023-05-31T08:00:04;20.80;99.90
16781;DHT22;8507;50.056;8.248;2023-05-31T08:02:30;21.10;99.90
16781;DHT22;8507;50.056;8.248;2023-05-31T08:04:55;20.80;99.90
16781;DHT22;8507;50.056;8.248;2023-05-31T08:07:27;20.60;99.90
16781;DHT22;8507;50.056;8.248;2023-05-31T08:09:52;20.50;99.90
16781;DHT22;8507;50.056;8.248;2023-05-31T08:12:18;20.90;99.90
16781;DHT22;8507;50.056;8.248;2023-05-31T08:14:43;20.70;99.90
16781;DHT22;8507;50.056;8.248;2023-05-31T08:17:09;20.80;99.90
16781;DHT22;8507;50.056;8.248;2023-05-31T08:19:34;20.70;99.90
16781;DHT22;8507;50.056;8.248;2023-05-31T08:22:00;20.70;99.90
16781;DHT22;8507;50.056;8.248;2023-05-31T08:24:25;20.90;99.90
16781;DHT22;8507;50.056;8.248;2023-05-31T08:26:51;21.10;99.90
16781;DHT22;8507;50.056;8.248;2023-05-31T08:29:16;21.20;99.90
16781;DHT22;8507;50.056;8.248;2023-05-31T08:31:42;21.20;99.90
16781;DHT22;8507;50.056;8.248;2023-05-31T08:34:07;21.30;99.90
16781;DHT22;8507;50.056;8.248;2023-05-31T08:36:33;21.60;99.90
16781;DHT22;8507;50.056;8.248;2023-05-31T08:38:59;21.40;99.90
16781;DHT22;8507;50.056;8.248;2023-05-31T08:41:27;21.40;99.90
16781;DHT22;8507;50.056;8.248;2023-05-31T08:43:54;21.40;99.90
16781;DHT22;8507;50.056;8.248;2023-05-31T08:46:21;21.40;99.90
16781;DHT22;8507;50.056;8.248;2023-05-31T08:48:53;21.40;99.90
16781;DHT22;8507;50.056;8.248;2023-05-31T08:51:19;21.40;99.90
16781;DHT22;8507;50.056;8.248;2023-05-31T08:53:48;21.60;99.90
16781;DHT22;8507;50.056;8.248;2023-05-31T08:56:14;22.10;99.90
16781;DHT22;8507;50.056;8.248;2023-05-31T08:58:43;21.90;99.90
16781;DHT22;8507;50.056;8.248;2023-05-31T09:01:09;22.10;99.90
16781;DHT22;8507;50.056;8.248;2023-05-31T09:03:37;21.90;99.90
16781;DHT22;8507;50.056;8.248;2023-05-31T09:06:03;21.60;99.90
16781;DHT22;8507;50.056;8.248;2023-05-31T09:08:29;22.20;99.90
16781;DHT22;8507;50.056;8.248;2023-05-31T09:11:00;22.60;99.90
16781;DHT22;8507;50.056;8.248;2023-05-31T09:13:26;22.60;99.90
16781;DHT22;8507;50.056;8.248;2023-05-31T09:15:52;22.20;99.90
16781;DHT22;8507;50.056;8.248;2023-05-31T09:18:22;22.00;99.90
16781;DHT22;8507;50.056;8.248;2023-05-31T09:20:49;22.20;99.90
16781;DHT22;8507;50.056;8.248;2023-05-31T09:23:17;22.60;99.90
16781;DHT22;8507;50.056;8.248;2023-05-31T09:25:48;22.70;99.90
16781;DHT22;8507;50.056;8.248;2023-05-31T09:28:16;22.30;99.90
16781;DHT22;8507;50.056;8.248;2023-05-31T09:30:42;22.20;99.90
16781;DHT22;8507;50.056;8.248;2023-05-31T09:33:07;22.60;99.90
16781;DHT22;8507;50.056;8.248;2023-05-31T09:35:33;22.70;99.90
16781;DHT22;8507;50.056;8.248;2023-05-31T09:38:06;22.30;99.90
16781;DHT22;8507;50.056;8.248;2023-05-31T09:40:32;22.00;99.90
16781;DHT22;8507;50.056;8.248;2023-05-31T09:42:59;22.30;99.90
16781;DHT22;8507;50.056;8.248;2023-05-31T09:45:24;22.40;99.90
16781;DHT22;8507;50.056;8.248;2023-05-31T09:47:51;22.30;99.90
16781;DHT22;8507;50.056;8.248;2023-05-31T09:50:23;22.50;99.90
16781;DHT22;8507;50.056;8.248;2023-05-31T09:52:56;22.40;99.90
16781;DHT22;8507;50.056;8.248;2023-05-31T09:55:23;22.50;99.90
16781;DHT22;8507;50.056;8.248;2023-05-31T09:57:51;22.60;99.90
16781;DHT22;8507;50.056;8.248;2023-05-31T10:00:17;22.80;99.90
16781;DHT22;8507;50.056;8.248;2023-05-31T10:02:50;22.50;99.90
16781;DHT22;8507;50.056;8.248;2023-05-31T10:05:17;22.50;99.90
16781;DHT22;8507;50.056;8.248;2023-05-31T10:07:45;22.50;99.90
16781;DHT22;8507;50.056;8.248;2023-05-31T10:10:12;22.50;99.90
16781;DHT22;8507;50.056;8.248;2023-05-31T10:15:10;22.80;99.90
16781;DHT22;8507;50.056;8.248;2023-05-31T10:17:40;22.70;99.90
16781;DHT22;8507;50.056;8.248;2023-05-31T10:20:08;22.90;99.90
16781;DHT22;8507;50.056;8.248;2023-05-31T10:22:39;23.00;99.90
16781;DHT22;8507;50.056;8.248;2023-05-31T10:25:13;22.80;99.90
16781;DHT22;8507;50.056;8.248;2023-05-31T10:27:44;23.00;99.90
16781;DHT22;8507;50.056;8.248;2023-05-31T10:30:12;23.10;99.90
16781;DHT22;8507;50.056;8.248;2023-05-31T10:32:42;23.50;99.90
16781;DHT22;8507;50.056;8.248;2023-05-31T10:35:11;22.90;99.90
16781;DHT22;8507;50.056;8.248;2023-05-31T10:37:39;23.10;99.90
16781;DHT22;8507;50.056;8.248;2023-05-31T10:40:12;23.10;99.90
16781;DHT22;8507;50.056;8.248;2023-05-31T10:42:59;23.20;99.90
16781;DHT22;8507;50.056;8.248;2023-05-31T10:45:38;23.20;99.90
16781;DHT22;8507;50.056;8.248;2023-05-31T10:48:38;23.60;99.90
16781;DHT22;8507;50.056;8.248;2023-05-31T10:51:04;23.90;99.90
16781;DHT22;8507;50.056;8.248;2023-05-31T10:53:30;23.80;99.90
16781;DHT22;8507;50.056;8.248;2023-05-31T10:56:04;23.40;99.90
16781;DHT22;8507;50.056;8.248;2023-05-31T11:01:06;23.70;99.90
16781;DHT22;8507;50.056;8.248;2023-05-31T11:03:46;23.80;99.90
16781;DHT22;8507;50.056;8.248;2023-05-31T11:06:14;23.80;99.90
16781;DHT22;8507;50.056;8.248;2023-05-31T11:14:01;23.70;99.90
16781;DHT22;8507;50.056;8.248;2023-05-31T11:16:30;23.80;99.90
16781;DHT22;8507;50.056;8.248;2023-05-31T11:19:08;24.00;99.90
16781;DHT22;8507;50.056;8.248;2023-05-31T11:21:52;24.10;99.90
16781;DHT22;8507;50.056;8.248;2023-05-31T11:26:56;24.30;99.90
16781;DHT22;8507;50.056;8.248;2023-05-31T11:29:22;24.30;99.90
16781;DHT22;8507;50.056;8.248;2023-05-31T11:31:56;24.50;99.90
16781;DHT22;8507;50.056;8.248;2023-05-31T11:34:27;24.60;99.90
16781;DHT22;8507;50.056;8.248;2023-05-31T11:36:56;24.70;99.90
16781;DHT22;8507;50.056;8.248;2023-05-31T11:39:23;24.60;99.90
16781;DHT22;8507;50.056;8.248;2023-05-31T11:41:48;24.40;99.90
16781;DHT22;8507;50.056;8.248;2023-05-31T11:44:19;24.30;99.90
16781;DHT22;8507;50.056;8.248;2023-05-31T11:46:46;24.20;99.90
16781;DHT22;8507;50.056;8.248;2023-05-31T11:49:14;24.30;99.90
16781;DHT22;8507;50.056;8.248;2023-05-31T11:51:43;24.50;99.90
16781;DHT22;8507;50.056;8.248;2023-05-31T11:54:09;24.60;99.90
16781;DHT22;8507;50.056;8.248;2023-05-31T11:56:37;24.60;99.90
16781;DHT22;8507;50.056;8.248;2023-05-31T11:59:03;25.10;99.90
16781;DHT22;8507;50.056;8.248;2023-05-31T12:01:35;24.80;99.90
16781;DHT22;8507;50.056;8.248;2023-05-31T12:04:01;24.90;99.90
16781;DHT22;8507;50.056;8.248;2023-05-31T12:06:27;25.00;99.90
16781;DHT22;8507;50.056;8.248;2023-05-31T12:08:53;24.70;99.90
16781;DHT22;8507;50.056;8.248;2023-05-31T12:11:19;25.00;99.90
16781;DHT22;8507;50.056;8.248;2023-05-31T12:13:45;25.00;99.90
16781;DHT22;8507;50.056;8.248;2023-05-31T12:16:10;24.90;99.90
16781;DHT22;8507;50.056;8.248;2023-05-31T12:18:36;25.20;99.90
16781;DHT22;8507;50.056;8.248;2023-05-31T12:21:09;25.30;99.90
16781;DHT22;8507;50.056;8.248;2023-05-31T12:23:57;25.00;99.90
16781;DHT22;8507;50.056;8.248;2023-05-31T12:26:23;24.60;99.90
16781;DHT22;8507;50.056;8.248;2023-05-31T12:28:50;25.00;99.90
16781;DHT22;8507;50.056;8.248;2023-05-31T12:31:23;25.00;99.90
16781;DHT22;8507;50.056;8.248;2023-05-31T12:34:08;24.90;99.90
16781;DHT22;8507;50.056;8.248;2023-05-31T12:36:39;25.00;99.90
16781;DHT22;8507;50.056;8.248;2023-05-31T12:39:20;25.00;99.90
16781;DHT22;8507;50.056;8.248;2023-05-31T12:41:47;25.00;99.90
16781;DHT22;8507;50.056;8.248;2023-05-31T12:44:17;25.00;99.90
16781;DHT22;8507;50.056;8.248;2023-05-31T12:46:45;25.20;99.90
16781;DHT22;8507;50.056;8.248;2023-05-31T12:49:22;25.00;99.90
16781;DHT22;8507;50.056;8.248;2023-05-31T12:52:05;25.60;99.90
16781;DHT22;8507;50.056;8.248;2023-05-31T12:54:38;25.30;99.90
16781;DHT22;8507;50.056;8.248;2023-05-31T12:57:06;25.40;99.90
16781;DHT22;8507;50.056;8.248;2023-05-31T12:59:32;25.40;99.90
16781;DHT22;8507;50.056;8.248;2023-05-31T13:01:58;25.30;99.90
16781;DHT22;8507;50.056;8.248;2023-05-31T13:04:24;25.30;99.90
16781;DHT22;8507;50.056;8.248;2023-05-31T13:06:51;25.20;99.90
16781;DHT22;8507;50.056;8.248;2023-05-31T13:09:16;25.10;99.90
16781;DHT22;8507;50.056;8.248;2023-05-31T13:11:43;25.00;99.90
16781;DHT22;8507;50.056;8.248;2023-05-31T13:14:09;25.10;99.90
16781;DHT22;8507;50.056;8.248;2023-05-31T13:16:38;25.40;99.90
16781;DHT22;8507;50.056;8.248;2023-05-31T13:19:05;25.50;99.90
16781;DHT22;8507;50.056;8.248;2023-05-31T13:21:31;25.80;99.90
16781;DHT22;8507;50.056;8.248;2023-05-31T13:23:58;25.50;99.90
16781;DHT22;8507;50.056;8.248;2023-05-31T13:26:25;25.30;99.90
16781;DHT22;8507;50.056;8.248;2023-05-31T13:28:53;25.20;99.90
16781;DHT22;8507;50.056;8.248;2023-05-31T13:31:19;25.30;99.90
16781;DHT22;8507;50.056;8.248;2023-05-31T13:33:45;25.40;99.90
16781;DHT22;8507;50.056;8.248;2023-05-31T13:36:16;25.50;99.90
16781;DHT22;8507;50.056;8.248;2023-05-31T13:38:42;25.50;99.90
16781;DHT22;8507;50.056;8.248;2023-05-31T13:41:07;25.60;99.90
16781;DHT22;8507;50.056;8.248;2023-05-31T13:43:33;25.60;99.90
16781;DHT22;8507;50.056;8.248;2023-05-31T13:45:59;25.50;99.90
16781;DHT22;8507;50.056;8.248;2023-05-31T13:48:26;25.20;99.90
16781;DHT22;8507;50.056;8.248;2023-05-31T13:50:51;25.30;99.90
16781;DHT22;8507;50.056;8.248;2023-05-31T13:53:20;25.60;99.90
16781;DHT22;8507;50.056;8.248;2023-05-31T13:55:46;25.10;99.90
16781;DHT22;8507;50.056;8.248;2023-05-31T13:58:12;25.30;99.90
16781;DHT22;8507;50.056;8.248;2023-05-31T14:00:38;25.20;99.90
16781;DHT22;8507;50.056;8.248;2023-05-31T14:03:04;25.20;99.90
16781;DHT22;8507;50.056;8.248;2023-05-31T14:05:29;25.30;99.90
16781;DHT22;8507;50.056;8.248;2023-05-31T14:07:56;25.30;99.90
16781;DHT22;8507;50.056;8.248;2023-05-31T14:10:21;25.30;99.90
16781;DHT22;8507;50.056;8.248;2023-05-31T14:12:47;25.40;99.90
16781;DHT22;8507;50.056;8.248;2023-05-31T14:15:14;25.40;99.90
16781;DHT22;8507;50.056;8.248;2023-05-31T14:17:40;25.20;99.90
16781;DHT22;8507;50.056;8.248;2023-05-31T14:20:06;25.30;99.90
16781;DHT22;8507;50.056;8.248;2023-05-31T14:22:32;25.40;99.90
16781;DHT22;8507;50.056;8.248;2023-05-31T14:24:57;25.50;99.90
16781;DHT22;8507;50.056;8.248;2023-05-31T14:27:23;25.40;99.90
16781;DHT22;8507;50.056;8.248;2023-05-31T14:29:49;25.30;99.90
16781;DHT22;8507;50.056;8.248;2023-05-31T14:32:15;25.40;99.90
16781;DHT22;8507;50.056;8.248;2023-05-31T14:34:44;25.50;99.90
16781;DHT22;8507;50.056;8.248;2023-05-31T14:37:10;25.50;99.90
16781;DHT22;8507;50.056;8.248;2023-05-31T14:39:37;25.70;99.90
16781;DHT22;8507;50.056;8.248;2023-05-31T14:42:03;25.70;99.90
16781;DHT22;8507;50.056;8.248;2023-05-31T14:44:29;25.80;99.90
16781;DHT22;8507;50.056;8.248;2023-05-31T14:46:54;25.30;99.90
16781;DHT22;8507;50.056;8.248;2023-05-31T14:49:21;25.50;99.90
16781;DHT22;8507;50.056;8.248;2023-05-31T14:51:49;25.30;99.90
16781;DHT22;8507;50.056;8.248;2023-05-31T14:54:15;25.40;99.90
16781;DHT22;8507;50.056;8.248;2023-05-31T14:56:40;25.30;99.90
16781;DHT22;8507;50.056;8.248;2023-05-31T14:59:06;25.30;99.90
16781;DHT22;8507;50.056;8.248;2023-05-31T15:01:31;25.40;99.90
16781;DHT22;8507;50.056;8.248;2023-05-31T15:03:57;25.70;99.90
16781;DHT22;8507;50.056;8.248;2023-05-31T15:06:22;25.80;99.90
16781;DHT22;8507;50.056;8.248;2023-05-31T15:08:49;25.80;99.90
16781;DHT22;8507;50.056;8.248;2023-05-31T15:11:15;25.80;99.90
16781;DHT22;8507;50.056;8.248;2023-05-31T15:13:40;25.40;99.90
16781;DHT22;8507;50.056;8.248;2023-05-31T15:16:06;25.40;99.90
16781;DHT22;8507;50.056;8.248;2023-05-31T15:18:32;25.60;99.90
16781;DHT22;8507;50.056;8.248;2023-05-31T15:20:57;25.70;99.90
16781;DHT22;8507;50.056;8.248;2023-05-31T15:23:22;25.70;99.90
16781;DHT22;8507;50.056;8.248;2023-05-31T15:25:48;25.90;99.90
16781;DHT22;8507;50.056;8.248;2023-05-31T15:28:13;25.80;99.90
16781;DHT22;8507;50.056;8.248;2023-05-31T15:30:39;25.80;99.90
16781;DHT22;8507;50.056;8.248;2023-05-31T15:33:05;25.80;99.90
16781;DHT22;8507;50.056;8.248;2023-05-31T15:35:30;25.80;99.90
16781;DHT22;8507;50.056;8.248;2023-05-31T15:37:59;25.60;99.90
16781;DHT22;8507;50.056;8.248;2023-05-31T15:40:25;25.60;99.90
16781;DHT22;8507;50.056;8.248;2023-05-31T15:42:51;25.70;99.90
16781;DHT22;8507;50.056;8.248;2023-05-31T15:45:16;25.70;99.90
16781;DHT22;8507;50.056;8.248;2023-05-31T15:47:42;25.90;99.90
16781;DHT22;8507;50.056;8.248;2023-05-31T15:50:08;26.00;99.90
16781;DHT22;8507;50.056;8.248;2023-05-31T15:52:33;26.00;99.90
16781;DHT22;8507;50.056;8.248;2023-05-31T15:54:59;26.10;99.90
16781;DHT22;8507;50.056;8.248;2023-05-31T15:57:24;25.90;99.90
16781;DHT22;8507;50.056;8.248;2023-05-31T15:59:50;25.80;99.90
16781;DHT22;8507;50.056;8.248;2023-05-31T16:02:15;25.80;99.90
16781;DHT22;8507;50.056;8.248;2023-05-31T16:04:41;25.90;99.90